createdAt,value
2022-12-31T00:02:07.785Z,92350.19
2022-12-31T00:04:34.569Z,92351.63
2022-12-31T00:07:01.281Z,92342.59
2022-12-31T00:09:27.957Z,92344.16
2022-12-31T00:11:54.579Z,92354.22
2022-12-31T00:14:21.252Z,92350.03
2022-12-31T00:16:47.970Z,92353.84
2022-12-31T00:19:14.610Z,92359.03
2022-12-31T00:21:41.392Z,92355.84
2022-12-31T00:24:08.832Z,92354.91
2022-12-31T00:26:35.912Z,92352.28
2022-12-31T00:29:03.871Z,92359.88
2022-12-31T00:31:33.731Z,92354.06
2022-12-31T00:34:01.410Z,92364.56
2022-12-31T00:36:34.731Z,92368.25
2022-12-31T00:39:03.299Z,92364.97
2022-12-31T00:41:30.677Z,92368.97
2022-12-31T00:43:57.712Z,92366.22
2022-12-31T00:46:25.322Z,92367.78
2022-12-31T00:48:52.352Z,92372.31
2022-12-31T00:51:22.463Z,92358.81
2022-12-31T00:53:49.487Z,92370.84
2022-12-31T00:56:20.177Z,92372.88
2022-12-31T00:58:47.533Z,92369.78
2022-12-31T01:01:20.489Z,92380.84
2022-12-31T01:03:49.570Z,92375.31
2022-12-31T01:06:16.665Z,92370.00
2022-12-31T01:08:43.853Z,92371.47
2022-12-31T01:11:24.563Z,92371.41
2022-12-31T01:14:03.279Z,92362.13
2022-12-31T01:16:33.948Z,92366.81
2022-12-31T01:19:03.101Z,92365.47
2022-12-31T01:21:33.292Z,92354.97
2022-12-31T01:23:59.994Z,92349.31
2022-12-31T01:26:27.645Z,92370.16
2022-12-31T01:28:55.036Z,92378.94
2022-12-31T01:31:23.357Z,92379.94
2022-12-31T01:33:51.397Z,92380.75
2022-12-31T01:36:25.940Z,92379.06
2022-12-31T01:38:54.438Z,92383.13
2022-12-31T01:41:25.649Z,92374.59
2022-12-31T01:43:55.545Z,92353.84
2022-12-31T01:46:28.329Z,92379.56
2022-12-31T01:49:01.482Z,92374.41
2022-12-31T01:51:31.825Z,92381.88
2022-12-31T01:54:00.679Z,92380.84
2022-12-31T01:56:27.399Z,92364.56
2022-12-31T01:58:57.052Z,92342.47
2022-12-31T02:01:31.163Z,92367.41
2022-12-31T02:04:00.571Z,92368.72
2022-12-31T02:06:37.565Z,92354.22
2022-12-31T02:09:04.337Z,92373.22
2022-12-31T02:11:36.609Z,92380.91
2022-12-31T02:14:08.214Z,92372.78
2022-12-31T02:16:42.240Z,92362.47
2022-12-31T02:19:43.009Z,92381.63
2022-12-31T02:22:14.086Z,92381.63
2022-12-31T02:24:50.030Z,92370.06
2022-12-31T02:27:40.976Z,92372.44
2022-12-31T02:30:15.306Z,92378.75
2022-12-31T02:33:02.615Z,92381.94
2022-12-31T02:35:37.126Z,92377.34
2022-12-31T02:38:18.356Z,92373.41
2022-12-31T02:40:47.147Z,92378.44
2022-12-31T02:43:14.506Z,92377.69
2022-12-31T02:45:45.860Z,92382.84
2022-12-31T02:48:30.911Z,92384.94
2022-12-31T02:51:09.882Z,92382.34
2022-12-31T02:54:10.966Z,92385.16
2022-12-31T02:56:57.403Z,92387.59
2022-12-31T02:59:58.755Z,92388.66
2022-12-31T03:02:30.526Z,92383.13
2022-12-31T03:04:58.733Z,92375.94
2022-12-31T03:07:31.936Z,92338.56
2022-12-31T03:09:59.895Z,92376.97
2022-12-31T03:12:47.012Z,92380.13
2022-12-31T03:15:21.622Z,92370.41
2022-12-31T03:18:00.669Z,92363.84
2022-12-31T03:20:51.373Z,92377.19
2022-12-31T03:23:22.537Z,92375.91
2022-12-31T03:25:49.486Z,92379.19
2022-12-31T03:28:19.264Z,92382.28
2022-12-31T03:30:48.770Z,92389.75
2022-12-31T03:33:16.505Z,92373.59
2022-12-31T03:35:45.329Z,92387.78
2022-12-31T03:38:12.166Z,92393.50
2022-12-31T03:40:41.282Z,92387.94
2022-12-31T03:43:08.510Z,92397.09
2022-12-31T03:45:35.924Z,92388.31
2022-12-31T03:48:04.730Z,92392.00
2022-12-31T03:50:31.410Z,92398.97
2022-12-31T03:52:58.279Z,92394.59
2022-12-31T03:55:25.044Z,92392.31
2022-12-31T03:57:51.986Z,92404.69
2022-12-31T04:00:20.872Z,92403.34
2022-12-31T04:02:48.664Z,92402.91
2022-12-31T04:05:17.029Z,92401.81
2022-12-31T04:07:44.045Z,92339.19
2022-12-31T04:10:13.355Z,92401.56
2022-12-31T04:12:40.358Z,92397.53
2022-12-31T04:15:08.500Z,92403.72
2022-12-31T04:17:35.289Z,92397.53
2022-12-31T04:20:02.515Z,92395.13
2022-12-31T04:22:29.315Z,92401.78
2022-12-31T04:24:55.976Z,92400.88
2022-12-31T04:27:22.954Z,92371.44
2022-12-31T04:29:52.730Z,92396.91
2022-12-31T04:32:19.461Z,92397.03
2022-12-31T04:34:47.020Z,92405.06
2022-12-31T04:37:13.835Z,92416.88
2022-12-31T04:39:40.442Z,92418.91
2022-12-31T04:42:07.476Z,92423.22
2022-12-31T04:44:35.206Z,92414.19
2022-12-31T04:47:02.278Z,92422.44
2022-12-31T04:49:29.007Z,92426.72
2022-12-31T04:51:55.690Z,92427.72
2022-12-31T04:54:22.709Z,92426.47
2022-12-31T04:56:49.421Z,92430.97
2022-12-31T04:59:16.101Z,92434.56
2022-12-31T05:01:42.848Z,92426.03
2022-12-31T05:04:09.646Z,92425.81
2022-12-31T05:06:36.489Z,92429.13
2022-12-31T05:09:03.334Z,92435.81
2022-12-31T05:11:30.092Z,92435.47
2022-12-31T05:13:56.782Z,92445.59
2022-12-31T05:16:23.580Z,92409.69
2022-12-31T05:18:50.241Z,92444.28
2022-12-31T05:21:21.314Z,92449.44
2022-12-31T05:23:49.179Z,92450.50
2022-12-31T05:26:16.777Z,92453.75
2022-12-31T05:28:43.558Z,92454.44
2022-12-31T05:31:14.886Z,92454.69
2022-12-31T05:33:41.623Z,92449.78
2022-12-31T05:36:08.345Z,92444.09
2022-12-31T05:38:35.173Z,92452.75
2022-12-31T05:41:04.331Z,92452.41
2022-12-31T05:43:31.748Z,92459.66
2022-12-31T05:46:05.420Z,92465.06
2022-12-31T05:48:32.487Z,92459.09
2022-12-31T05:50:59.393Z,92461.44
2022-12-31T05:53:26.213Z,92465.28
2022-12-31T05:55:53.298Z,92446.75
2022-12-31T05:58:20.065Z,92469.16
2022-12-31T06:00:46.787Z,92477.41
2022-12-31T06:03:13.733Z,92480.16
2022-12-31T06:05:42.489Z,92486.31
2022-12-31T06:08:12.136Z,92486.78
2022-12-31T06:10:40.099Z,92479.41
2022-12-31T06:13:07.078Z,92479.09
2022-12-31T06:15:36.711Z,92484.50
2022-12-31T06:18:04.565Z,92486.50
2022-12-31T06:20:31.273Z,92486.09
2022-12-31T06:22:58.184Z,92485.31
2022-12-31T06:25:24.836Z,92490.31
2022-12-31T06:27:51.461Z,92491.03
2022-12-31T06:30:18.245Z,92492.69
2022-12-31T06:32:44.921Z,92492.63
2022-12-31T06:35:11.672Z,92498.94
2022-12-31T06:37:38.393Z,92471.09
2022-12-31T06:40:05.733Z,92491.16
2022-12-31T06:42:32.559Z,92500.31
2022-12-31T06:44:59.382Z,92496.03
2022-12-31T06:47:26.454Z,92482.56
2022-12-31T06:49:53.367Z,92500.13
2022-12-31T06:52:20.713Z,92487.06
2022-12-31T06:54:48.048Z,92494.78
2022-12-31T06:57:15.210Z,92495.59
2022-12-31T06:59:46.409Z,92502.47
2022-12-31T07:02:30.643Z,92499.34
2022-12-31T07:05:10.264Z,92509.31
2022-12-31T07:08:08.291Z,92469.41
2022-12-31T07:10:39.901Z,92501.91
2022-12-31T07:13:21.891Z,92505.63
2022-12-31T07:15:59.750Z,92501.84
2022-12-31T07:18:46.601Z,92506.72
2022-12-31T07:21:16.550Z,92505.75
2022-12-31T07:23:43.603Z,92509.91
2022-12-31T07:26:25.930Z,92511.84
2022-12-31T07:29:08.876Z,92526.75
2022-12-31T07:32:13.434Z,92519.94
2022-12-31T07:35:00.376Z,92526.59
2022-12-31T07:37:39.788Z,92521.22
2022-12-31T07:40:30.338Z,92528.00
2022-12-31T07:43:15.614Z,92522.06
2022-12-31T07:45:50.064Z,92528.00
2022-12-31T07:48:25.529Z,92515.03
2022-12-31T07:50:55.694Z,92525.88
2022-12-31T07:53:23.690Z,92524.28
2022-12-31T07:56:01.964Z,92524.53
2022-12-31T07:58:34.752Z,92523.91
2022-12-31T08:01:03.303Z,92532.19
2022-12-31T08:03:39.078Z,92526.19
2022-12-31T08:06:12.459Z,92536.78
2022-12-31T08:09:22.667Z,92535.22
2022-12-31T08:11:58.480Z,92537.50
2022-12-31T08:14:26.242Z,92526.03
2022-12-31T08:16:53.663Z,92530.09
2022-12-31T08:19:23.814Z,92530.72
2022-12-31T08:22:08.104Z,92533.50
2022-12-31T08:24:58.203Z,92526.63
2022-12-31T08:27:27.817Z,92532.16
2022-12-31T08:29:54.412Z,92528.91
2022-12-31T08:32:29.244Z,92538.19
2022-12-31T08:35:24.962Z,92530.63
2022-12-31T08:37:56.256Z,92527.22
2022-12-31T08:40:47.952Z,92526.22
2022-12-31T08:43:14.673Z,92497.41
2022-12-31T08:45:50.171Z,92519.66
2022-12-31T08:48:43.380Z,92525.03
2022-12-31T08:51:18.024Z,92509.41
2022-12-31T08:53:45.351Z,92517.16
2022-12-31T08:56:25.663Z,92510.44
2022-12-31T08:58:52.444Z,92513.47
2022-12-31T09:01:24.769Z,92511.41
2022-12-31T09:03:57.570Z,92505.66
2022-12-31T09:06:42.753Z,92505.72
2022-12-31T09:09:38.838Z,92498.88
2022-12-31T09:12:23.102Z,92501.50
2022-12-31T09:15:15.771Z,92500.59
2022-12-31T09:17:49.904Z,92500.06
2022-12-31T09:20:42.428Z,92490.47
2022-12-31T09:23:11.202Z,92499.97
2022-12-31T09:26:00.517Z,92487.72
2022-12-31T09:28:50.313Z,92466.84
2022-12-31T09:31:46.076Z,92482.56
2022-12-31T09:34:22.751Z,92470.06
2022-12-31T09:36:58.613Z,92470.19
2022-12-31T09:39:28.002Z,92468.06
2022-12-31T09:42:00.644Z,92467.66
2022-12-31T09:45:04.939Z,92457.09
2022-12-31T09:48:09.431Z,92453.56
2022-12-31T09:51:18.082Z,92447.50
2022-12-31T09:54:04.418Z,92452.16
2022-12-31T09:56:42.142Z,92446.91
2022-12-31T09:59:25.712Z,92442.75
2022-12-31T10:02:14.224Z,92441.78
2022-12-31T10:04:53.497Z,92428.97
2022-12-31T10:07:52.159Z,92428.63
2022-12-31T10:10:25.837Z,92429.88
2022-12-31T10:13:10.028Z,92415.66
2022-12-31T10:15:58.418Z,92418.66
2022-12-31T10:18:42.977Z,92415.44
2022-12-31T10:21:18.757Z,92410.09
2022-12-31T10:24:09.638Z,92405.84
2022-12-31T10:26:53.339Z,92401.81
2022-12-31T10:29:27.955Z,92404.41
2022-12-31T10:32:18.321Z,92397.81
2022-12-31T10:34:53.661Z,92400.00
2022-12-31T10:37:28.242Z,92386.53
2022-12-31T10:40:17.299Z,92384.06
2022-12-31T10:42:50.990Z,92392.69
2022-12-31T10:45:23.982Z,92392.53
2022-12-31T10:48:06.102Z,92391.00
2022-12-31T10:50:51.865Z,92397.41
2022-12-31T10:53:44.554Z,92398.78
2022-12-31T10:57:09.242Z,92392.91
2022-12-31T10:59:59.904Z,92391.75
2022-12-31T11:02:54.455Z,92394.97
2022-12-31T11:05:51.985Z,92383.88
2022-12-31T11:08:53.940Z,92377.81
2022-12-31T11:11:43.567Z,92383.34
2022-12-31T11:14:28.709Z,92380.56
2022-12-31T11:17:29.693Z,92375.47
2022-12-31T11:20:04.052Z,92371.63
2022-12-31T11:22:42.772Z,92369.88
2022-12-31T11:25:12.658Z,92374.38
2022-12-31T11:27:59.202Z,92367.22
2022-12-31T11:30:47.727Z,92330.47
2022-12-31T11:33:54.871Z,92364.72
2022-12-31T11:36:36.527Z,92371.84
2022-12-31T11:39:31.401Z,92372.63
2022-12-31T11:42:36.036Z,92373.06
2022-12-31T11:45:14.829Z,92365.47
2022-12-31T11:48:29.183Z,92371.25
2022-12-31T11:50:59.544Z,92369.78
2022-12-31T11:53:58.084Z,92363.63
2022-12-31T11:56:30.529Z,92361.09
2022-12-31T11:58:57.761Z,92357.38
2022-12-31T12:01:36.306Z,92368.66
2022-12-31T12:04:03.652Z,92365.34
2022-12-31T12:06:32.898Z,92359.81
2022-12-31T12:09:04.580Z,92365.03
2022-12-31T12:11:35.376Z,92361.94
2022-12-31T12:14:18.151Z,92357.22
2022-12-31T12:16:44.986Z,92354.50
2022-12-31T12:19:18.486Z,92359.31
2022-12-31T12:21:48.177Z,92365.56
2022-12-31T12:24:51.719Z,92367.78
2022-12-31T12:27:27.071Z,92364.28
2022-12-31T12:29:53.901Z,92367.22
2022-12-31T12:32:25.085Z,92367.44
2022-12-31T12:34:52.757Z,92367.63
2022-12-31T12:37:29.658Z,92378.41
2022-12-31T12:40:21.123Z,92375.13
2022-12-31T12:42:49.770Z,92373.22
2022-12-31T12:45:23.808Z,92370.66
2022-12-31T12:48:01.169Z,92372.25
2022-12-31T12:50:46.033Z,92376.56
2022-12-31T12:53:12.643Z,92375.31
2022-12-31T12:56:01.189Z,92357.31
2022-12-31T12:58:36.972Z,92367.97
2022-12-31T13:01:15.689Z,92374.72
2022-12-31T13:04:35.719Z,92380.59
2022-12-31T13:07:51.229Z,92383.06
2022-12-31T13:10:25.436Z,92373.63
2022-12-31T13:13:23.455Z,92386.88
2022-12-31T13:15:51.047Z,92389.13
2022-12-31T13:18:26.703Z,92391.44
2022-12-31T13:21:07.785Z,92391.81
2022-12-31T13:23:43.168Z,92389.16
2022-12-31T13:26:16.475Z,92391.06
2022-12-31T13:28:46.490Z,92390.66
2022-12-31T13:31:21.717Z,92393.09
2022-12-31T13:34:06.137Z,92402.34
2022-12-31T13:36:39.688Z,92398.16
2022-12-31T13:39:16.971Z,92401.31
2022-12-31T13:41:52.125Z,92401.78
2022-12-31T13:44:18.840Z,92402.97
2022-12-31T13:46:56.638Z,92385.47
2022-12-31T13:49:31.706Z,92408.22
2022-12-31T13:52:05.740Z,92410.56
2022-12-31T13:54:38.393Z,92407.56
2022-12-31T13:57:15.468Z,92415.75
2022-12-31T13:59:50.274Z,92422.69
2022-12-31T14:02:41.377Z,92414.56
2022-12-31T14:05:11.274Z,92402.16
2022-12-31T14:07:48.743Z,92416.91
2022-12-31T14:10:17.230Z,92433.97
2022-12-31T14:12:53.009Z,92437.84
2022-12-31T14:15:47.933Z,92433.75
2022-12-31T14:18:25.868Z,92416.44
2022-12-31T14:21:03.159Z,92443.09
2022-12-31T14:23:48.659Z,92422.44
2022-12-31T14:26:27.725Z,92449.25
2022-12-31T14:29:12.538Z,92428.19
2022-12-31T14:31:48.638Z,92453.97
2022-12-31T14:34:40.784Z,92463.56
2022-12-31T14:37:35.223Z,92467.78
2022-12-31T14:40:39.264Z,92469.66
2022-12-31T14:43:34.106Z,92477.41
2022-12-31T14:46:31.983Z,92474.19
2022-12-31T14:49:35.762Z,92478.75
2022-12-31T14:52:29.838Z,92486.59
2022-12-31T14:55:20.995Z,92483.53
2022-12-31T14:58:26.329Z,92490.75
2022-12-31T15:00:54.177Z,92496.25
2022-12-31T15:03:34.491Z,92492.75
2022-12-31T15:06:19.431Z,92495.88
2022-12-31T15:08:56.338Z,92508.13
2022-12-31T15:11:38.353Z,92507.13
2022-12-31T15:14:45.441Z,92516.44
2022-12-31T15:17:15.535Z,92515.38
2022-12-31T15:20:01.222Z,92506.16
2022-12-31T15:22:47.394Z,92512.44
2022-12-31T15:25:39.995Z,92518.13
2022-12-31T15:28:24.680Z,92514.31
2022-12-31T15:31:01.807Z,92519.19
2022-12-31T15:33:36.511Z,92516.94
2022-12-31T15:36:18.495Z,92521.44
2022-12-31T15:38:46.665Z,92531.63
2022-12-31T15:41:19.397Z,92533.06
2022-12-31T15:44:28.113Z,92502.66
2022-12-31T15:47:04.380Z,92538.03
2022-12-31T15:49:38.662Z,92533.00
2022-12-31T15:52:13.329Z,92543.16
2022-12-31T15:54:48.009Z,92534.00
2022-12-31T15:57:19.394Z,92530.47
2022-12-31T15:59:46.330Z,92538.19
2022-12-31T16:02:24.148Z,92534.81
2022-12-31T16:04:52.038Z,92546.97
2022-12-31T16:07:18.999Z,92540.25
2022-12-31T16:09:58.621Z,92545.91
2022-12-31T16:12:33.099Z,92552.03
2022-12-31T16:15:02.145Z,92556.34
2022-12-31T16:17:34.525Z,92562.66
2022-12-31T16:20:22.564Z,92565.88
2022-12-31T16:22:56.287Z,92565.56
2022-12-31T16:25:33.175Z,92562.94
2022-12-31T16:28:03.042Z,92562.31
2022-12-31T16:30:32.195Z,92563.72
2022-12-31T16:33:05.614Z,92558.34
2022-12-31T16:35:39.309Z,92538.53
2022-12-31T16:38:17.965Z,92569.03
2022-12-31T16:41:04.936Z,92566.72
2022-12-31T16:43:40.181Z,92577.75
2022-12-31T16:46:31.336Z,92587.22
2022-12-31T16:49:16.066Z,92587.06
2022-12-31T16:51:43.443Z,92587.22
2022-12-31T16:54:23.759Z,92583.69
2022-12-31T16:56:52.012Z,92594.84
2022-12-31T16:59:35.129Z,92589.94
2022-12-31T17:02:09.944Z,92600.19
2022-12-31T17:04:40.004Z,92598.34
2022-12-31T17:07:30.586Z,92594.13
2022-12-31T17:10:03.468Z,92606.06
2022-12-31T17:12:52.685Z,92605.66
2022-12-31T17:15:41.590Z,92608.91
2022-12-31T17:18:18.036Z,92605.25
2022-12-31T17:20:46.478Z,92611.53
2022-12-31T17:23:24.137Z,92617.16
2022-12-31T17:25:58.953Z,92614.69
2022-12-31T17:28:27.717Z,92620.31
2022-12-31T17:31:01.029Z,92620.88
2022-12-31T17:33:30.357Z,92617.44
2022-12-31T17:36:13.793Z,92617.81
2022-12-31T17:38:40.536Z,92632.34
2022-12-31T17:41:08.323Z,92621.13
2022-12-31T17:43:39.212Z,92615.69
2022-12-31T17:46:17.175Z,92618.75
2022-12-31T17:48:46.386Z,92615.09
2022-12-31T17:51:13.175Z,92614.81
2022-12-31T17:53:40.064Z,92617.22
2022-12-31T17:56:10.377Z,92608.75
2022-12-31T17:58:49.831Z,92627.25
2022-12-31T18:01:21.697Z,92621.09
2022-12-31T18:03:48.772Z,92625.00
2022-12-31T18:06:17.293Z,92629.00
2022-12-31T18:08:44.257Z,92626.16
2022-12-31T18:11:20.009Z,92628.16
2022-12-31T18:13:47.314Z,92630.25
2022-12-31T18:16:14.834Z,92639.22
2022-12-31T18:18:42.373Z,92633.59
2022-12-31T18:21:18.667Z,92630.41
2022-12-31T18:23:47.591Z,92630.63
2022-12-31T18:26:16.951Z,92637.72
2022-12-31T18:28:44.001Z,92638.81
2022-12-31T18:31:15.791Z,92642.25
2022-12-31T18:33:42.747Z,92641.38
2022-12-31T18:36:15.529Z,92655.03
2022-12-31T18:38:42.578Z,92651.94
2022-12-31T18:41:21.653Z,92658.56
2022-12-31T18:43:49.142Z,92650.41
2022-12-31T18:46:18.369Z,92649.66
2022-12-31T18:48:45.343Z,92657.31
2022-12-31T18:51:19.263Z,92649.66
2022-12-31T18:53:47.147Z,92658.66
2022-12-31T18:56:16.636Z,92659.44
2022-12-31T18:58:44.249Z,92656.38
2022-12-31T19:01:26.556Z,92661.56
2022-12-31T19:03:58.531Z,92658.09
2022-12-31T19:06:25.809Z,92652.34
2022-12-31T19:08:52.963Z,92664.75
2022-12-31T19:11:21.294Z,92656.94
2022-12-31T19:13:48.942Z,92668.50
2022-12-31T19:16:15.937Z,92658.94
2022-12-31T19:18:43.581Z,92651.97
2022-12-31T19:21:15.518Z,92653.59
2022-12-31T19:23:42.486Z,92649.75
2022-12-31T19:26:14.505Z,92653.47
2022-12-31T19:28:41.291Z,92655.63
2022-12-31T19:31:08.039Z,92666.63
2022-12-31T19:33:34.840Z,92664.38
2022-12-31T19:36:01.721Z,92666.91
2022-12-31T19:38:29.930Z,92671.50
2022-12-31T19:40:56.703Z,92670.09
2022-12-31T19:43:23.797Z,92674.94
2022-12-31T19:45:51.426Z,92689.59
2022-12-31T19:48:24.667Z,92685.91
2022-12-31T19:50:55.461Z,92691.88
2022-12-31T19:53:25.865Z,92695.03
2022-12-31T19:55:53.733Z,92691.81
2022-12-31T19:58:25.738Z,92688.84
2022-12-31T20:01:01.269Z,92690.38
2022-12-31T20:03:29.417Z,92685.81
2022-12-31T20:06:05.496Z,92688.81
2022-12-31T20:08:32.651Z,92680.75
2022-12-31T20:11:11.170Z,92688.75
2022-12-31T20:13:39.056Z,92685.72
2022-12-31T20:16:10.996Z,92692.69
2022-12-31T20:18:39.271Z,92686.72
2022-12-31T20:21:17.791Z,92693.72
2022-12-31T20:23:44.830Z,92689.09
2022-12-31T20:26:11.930Z,92700.59
2022-12-31T20:28:39.197Z,92692.22
2022-12-31T20:31:11.480Z,92690.00
2022-12-31T20:33:38.565Z,92684.97
2022-12-31T20:36:07.442Z,92689.75
2022-12-31T20:38:34.650Z,92690.78
2022-12-31T20:41:06.510Z,92680.78
2022-12-31T20:43:33.913Z,92690.16
2022-12-31T20:46:12.417Z,92685.25
2022-12-31T20:48:41.577Z,92695.81
2022-12-31T20:51:08.489Z,92691.06
2022-12-31T20:53:35.137Z,92683.09
2022-12-31T20:56:06.106Z,92678.75
2022-12-31T20:58:32.969Z,92684.91
2022-12-31T21:01:00.648Z,92684.66
2022-12-31T21:04:03.682Z,92691.34
2022-12-31T21:06:15.713Z,92699.53
2022-12-31T21:08:45.137Z,92699.97
2022-12-31T21:11:30.666Z,92698.13
2022-12-31T21:13:58.554Z,92697.94
2022-12-31T21:16:26.480Z,92692.75
2022-12-31T21:18:54.265Z,92698.84
2022-12-31T21:21:21.120Z,92700.44
2022-12-31T21:23:47.987Z,92700.78
2022-12-31T21:26:15.004Z,92695.75
2022-12-31T21:28:41.961Z,92705.41
2022-12-31T21:31:12.109Z,92695.53
2022-12-31T21:33:38.914Z,92701.34
2022-12-31T21:36:05.902Z,92703.19
2022-12-31T21:38:32.701Z,92688.72
2022-12-31T21:41:03.961Z,92677.97
2022-12-31T21:43:30.811Z,92693.03
2022-12-31T21:46:06.197Z,92694.31
2022-12-31T21:48:33.499Z,92689.94
2022-12-31T21:51:13.291Z,92670.81
2022-12-31T21:53:40.294Z,92687.13
2022-12-31T21:56:11.794Z,92697.50
2022-12-31T21:58:40.988Z,92701.88
2022-12-31T22:01:28.989Z,92663.97
2022-12-31T22:03:55.769Z,92687.34
2022-12-31T22:06:24.229Z,92689.66
2022-12-31T22:08:54.185Z,92687.59
2022-12-31T22:11:23.298Z,92682.91
2022-12-31T22:13:50.154Z,92686.06
2022-12-31T22:16:19.122Z,92664.91
2022-12-31T22:18:46.502Z,92685.94
2022-12-31T22:21:24.091Z,92680.38
2022-12-31T22:23:52.912Z,92695.34
2022-12-31T22:26:22.669Z,92689.22
2022-12-31T22:28:50.133Z,92691.94
2022-12-31T22:31:20.149Z,92693.19
2022-12-31T22:33:47.559Z,92688.53
2022-12-31T22:36:16.941Z,92691.94
2022-12-31T22:38:44.174Z,92693.25
2022-12-31T22:41:13.556Z,92699.78
2022-12-31T22:43:42.713Z,92694.91
2022-12-31T22:46:18.743Z,92685.78
2022-12-31T22:48:45.745Z,92688.88
2022-12-31T22:51:14.698Z,92693.44
2022-12-31T22:53:43.454Z,92694.56
2022-12-31T22:56:11.890Z,92692.66
2022-12-31T22:58:38.903Z,92688.84
2022-12-31T23:01:07.751Z,92686.13
2022-12-31T23:03:34.859Z,92700.00
2022-12-31T23:06:01.568Z,92690.19
2022-12-31T23:08:28.368Z,92690.63
2022-12-31T23:11:01.637Z,92687.00
2022-12-31T23:13:50.871Z,92688.78
2022-12-31T23:16:37.857Z,92679.63
2022-12-31T23:19:25.217Z,92685.88
2022-12-31T23:22:11.230Z,92688.13
2022-12-31T23:24:38.561Z,92691.22
2022-12-31T23:27:06.156Z,92684.31
2022-12-31T23:29:33.413Z,92656.53
2022-12-31T23:32:00.528Z,92696.38
2022-12-31T23:34:27.267Z,92693.63
2022-12-31T23:36:53.991Z,92694.66
2022-12-31T23:39:20.881Z,92695.09
2022-12-31T23:41:48.060Z,92694.03
2022-12-31T23:44:14.839Z,92691.03
2022-12-31T23:46:42.373Z,92691.06
2022-12-31T23:49:09.520Z,92681.72
2022-12-31T23:51:37.010Z,92692.50
2022-12-31T23:54:04.793Z,92694.09
2022-12-31T23:56:31.564Z,92680.41
2022-12-31T23:58:59.362Z,92695.81
